Time;durP1;ratioP1;P1;durP2;ratioP2;P2;SDS_P1;SDS_P2;PMS_P1;PMS_P2;Temp;Humidity;BMP_temperature;BMP_pressure;BME280_temperature;BME280_humidity;BME280_pressure;Samples;Min_cycle;Max_cycle;Signal;HPM_P1;HPM_P2
2022/06/22 00:02:18;;;;;;;2.63;1.65;;;24.50;51.00;;;;;;5000471;28;20642;-76
2022/06/22 00:04:52;;;;;;;3.28;1.70;;;24.40;50.50;;;;;;4996025;28;20871;-76
2022/06/22 00:07:26;;;;;;;8.38;2.10;;;24.30;50.70;;;;;;4996920;28;20201;-75
2022/06/22 00:09:59;;;;;;;5.72;2.03;;;24.30;51.50;;;;;;5001911;28;20209;-75
2022/06/22 00:12:30;;;;;;;3.28;1.45;;;24.20;51.80;;;;;;5003100;28;20196;-75
2022/06/22 00:15:01;;;;;;;7.30;2.15;;;24.20;52.10;;;;;;4994806;28;20200;-75
2022/06/22 00:17:34;;;;;;;5.40;1.92;;;24.10;52.80;;;;;;4996886;28;20726;-75
2022/06/22 00:20:21;;;;;;;4.35;1.85;;;24.20;53.10;;;;;;4999078;28;20204;-75
2022/06/22 00:22:52;;;;;;;4.25;1.83;;;24.20;53.40;;;;;;5001513;28;20221;-75
2022/06/22 00:25:27;;;;;;;3.53;1.88;;;24.10;54.30;;;;;;4994256;28;20188;-76
2022/06/22 00:27:56;;;;;;;2.92;1.90;;;24.10;54.50;;;;;;4999522;28;20203;-75
2022/06/22 00:30:29;;;;;;;5.97;1.90;;;24.00;54.90;;;;;;4993597;28;20629;-75
2022/06/22 00:33:12;;;;;;;5.47;1.98;;;24.00;55.10;;;;;;4992861;28;20614;-75
2022/06/22 00:36:13;;;;;;;2.40;1.60;;;24.00;55.50;;;;;;4992269;28;20197;-76
2022/06/22 00:38:41;;;;;;;5.03;1.60;;;24.00;56.10;;;;;;4996280;28;20223;-76
2022/06/22 00:41:20;;;;;;;3.50;1.55;;;24.00;56.40;;;;;;5004368;28;20196;-76
2022/06/22 00:43:49;;;;;;;4.70;2.35;;;24.00;56.40;;;;;;4994521;28;20655;-75
2022/06/22 00:46:21;;;;;;;4.20;2.00;;;24.00;56.50;;;;;;4991926;28;20197;-76
2022/06/22 00:48:52;;;;;;;3.17;2.10;;;23.90;56.70;;;;;;4989423;28;20217;-76
2022/06/22 00:51:25;;;;;;;3.88;2.20;;;23.90;57.00;;;;;;5001142;28;20599;-76
2022/06/22 00:53:58;;;;;;;3.67;1.92;;;23.90;57.40;;;;;;4989590;28;20203;-76
2022/06/22 00:56:42;;;;;;;4.03;2.13;;;23.90;57.30;;;;;;4991227;28;20203;-75
2022/06/22 00:59:20;;;;;;;4.30;1.83;;;23.90;57.20;;;;;;4996285;28;20647;-76
2022/06/22 01:01:53;;;;;;;6.13;2.30;;;23.90;57.30;;;;;;4999737;28;20188;-76
2022/06/22 01:04:27;;;;;;;3.85;1.83;;;23.90;57.40;;;;;;4986311;28;20193;-76
2022/06/22 01:06:58;;;;;;;2.75;1.88;;;23.90;57.90;;;;;;4987099;28;20250;-75
2022/06/22 01:09:33;;;;;;;4.05;2.22;;;23.80;57.80;;;;;;4994202;28;20211;-75
2022/06/22 01:12:22;;;;;;;5.47;1.80;;;23.80;58.00;;;;;;5001751;28;20188;-75
2022/06/22 01:14:59;;;;;;;2.25;1.52;;;23.70;58.10;;;;;;4994293;28;20193;-76
2022/06/22 01:17:30;;;;;;;4.95;1.80;;;23.70;58.10;;;;;;4992587;28;20856;-75
2022/06/22 01:20:09;;;;;;;3.00;1.52;;;23.70;58.10;;;;;;4996230;28;20188;-76
2022/06/22 01:23:09;;;;;;;5.10;1.80;;;23.70;58.00;;;;;;4993677;28;20197;-76
2022/06/22 01:25:52;;;;;;;7.00;2.00;;;23.60;57.90;;;;;;4998203;28;20204;-76
2022/06/22 01:28:23;;;;;;;3.90;1.88;;;23.60;57.90;;;;;;4991474;28;20837;-75
2022/06/22 01:30:55;;;;;;;4.57;1.60;;;23.60;57.70;;;;;;4998358;28;20220;-75
2022/06/22 01:33:27;;;;;;;2.08;1.50;;;23.60;57.70;;;;;;4996261;28;20185;-75
2022/06/22 01:36:01;;;;;;;4.15;1.63;;;23.60;57.70;;;;;;4993652;28;20280;-75
2022/06/22 01:38:31;;;;;;;5.05;1.83;;;23.60;57.80;;;;;;4986357;28;20655;-76
2022/06/22 01:41:06;;;;;;;4.20;1.58;;;23.60;57.90;;;;;;5000198;28;20188;-75
2022/06/22 01:43:41;;;;;;;3.70;1.80;;;23.50;57.60;;;;;;5002013;28;20196;-75
2022/06/22 01:46:17;;;;;;;4.38;1.73;;;23.50;57.70;;;;;;5002422;28;20242;-75
2022/06/22 01:48:54;;;;;;;5.05;1.58;;;23.50;57.70;;;;;;4982860;28;20274;-76
2022/06/22 01:51:27;;;;;;;5.47;1.80;;;23.50;57.70;;;;;;4993205;28;20200;-75
2022/06/22 01:54:00;;;;;;;3.85;1.95;;;23.50;57.80;;;;;;4991397;28;21225;-75
2022/06/22 01:56:37;;;;;;;5.32;1.80;;;23.40;57.70;;;;;;4994910;28;20666;-74
2022/06/22 01:59:18;;;;;;;2.78;1.58;;;23.40;57.80;;;;;;4998645;28;20189;-76
2022/06/22 02:01:53;;;;;;;3.60;1.60;;;23.40;57.80;;;;;;4988442;28;20193;-76
2022/06/22 02:04:29;;;;;;;2.72;1.77;;;23.30;57.70;;;;;;4996848;28;20187;-76
2022/06/22 02:10:00;;;;;;;2.15;1.40;;;23.30;57.60;;;;;;4996715;28;20231;-76
2022/06/22 02:12:35;;;;;;;4.72;1.73;;;23.30;57.90;;;;;;4991131;28;20192;-75
2022/06/22 02:15:11;;;;;;;3.85;1.75;;;23.30;58.00;;;;;;4992152;28;20288;-76
2022/06/22 02:17:42;;;;;;;3.10;2.03;;;23.20;58.20;;;;;;4984241;28;20188;-76
2022/06/22 02:20:34;;;;;;;5.00;1.95;;;23.20;58.30;;;;;;4996364;28;20200;-75
2022/06/22 02:23:08;;;;;;;6.07;2.35;;;23.20;59.00;;;;;;4991154;28;20188;-75
2022/06/22 02:25:43;;;;;;;3.47;2.30;;;23.10;58.30;;;;;;4997854;28;20545;-76
2022/06/22 02:28:12;;;;;;;4.47;2.25;;;23.10;58.30;;;;;;4986071;28;20189;-76
2022/06/22 02:30:43;;;;;;;4.30;2.40;;;23.10;58.30;;;;;;4989076;28;20656;-76
2022/06/22 02:33:12;;;;;;;3.42;2.10;;;23.10;58.30;;;;;;4984264;28;20506;-75
2022/06/22 02:35:43;;;;;;;5.70;2.20;;;23.10;58.20;;;;;;4989857;28;20212;-75
2022/06/22 02:38:15;;;;;;;4.80;2.30;;;23.10;58.30;;;;;;4985536;28;20215;-75
2022/06/22 02:46:28;;;;;;;5.00;2.10;;;23.00;58.90;;;;;;5000153;28;20204;-75
2022/06/22 02:49:03;;;;;;;5.00;2.30;;;23.00;59.00;;;;;;5000286;28;20189;-75
2022/06/22 02:51:37;;;;;;;3.47;1.85;;;23.00;59.20;;;;;;4997889;28;20218;-74
2022/06/22 02:54:11;;;;;;;5.43;2.25;;;23.00;59.40;;;;;;4983293;28;20846;-75
2022/06/22 02:56:43;;;;;;;5.97;2.10;;;22.90;59.40;;;;;;4994142;28;20193;-75
2022/06/22 02:59:12;;;;;;;8.00;2.10;;;22.90;59.80;;;;;;4993852;28;20195;-74
2022/06/22 03:01:41;;;;;;;7.05;2.25;;;22.90;60.00;;;;;;4997638;28;20180;-76
2022/06/22 03:04:13;;;;;;;5.65;2.17;;;22.80;60.00;;;;;;4989552;28;20293;-76
2022/06/22 03:06:45;;;;;;;12.05;2.88;;;22.80;60.20;;;;;;4998015;28;20396;-74
2022/06/22 03:09:14;;;;;;;5.45;2.30;;;22.80;60.50;;;;;;4989732;28;20567;-75
2022/06/22 03:11:46;;;;;;;2.72;1.85;;;22.80;60.90;;;;;;4994184;28;20224;-75
2022/06/22 03:14:21;;;;;;;6.72;2.33;;;22.80;61.00;;;;;;4996151;28;20680;-75
2022/06/22 03:16:55;;;;;;;5.45;2.15;;;22.80;61.00;;;;;;4984797;28;20203;-75
2022/06/22 03:19:28;;;;;;;3.42;2.08;;;22.70;61.00;;;;;;5000520;28;20211;-75
2022/06/22 03:21:57;;;;;;;4.78;2.28;;;22.80;61.00;;;;;;5004701;28;20189;-75
2022/06/22 03:24:36;;;;;;;6.70;2.25;;;22.70;61.00;;;;;;5002405;28;20199;-75
2022/06/22 03:27:11;;;;;;;6.18;2.22;;;22.80;61.40;;;;;;5000417;28;20200;-75
2022/06/22 03:29:43;;;;;;;4.10;2.47;;;22.80;61.60;;;;;;4997096;28;20192;-75
2022/06/22 03:32:18;;;;;;;7.78;2.60;;;22.70;61.90;;;;;;5003465;28;20230;-75
2022/06/22 03:34:51;;;;;;;5.70;2.30;;;22.70;62.00;;;;;;4992525;28;20185;-75
2022/06/22 03:37:25;;;;;;;5.97;2.35;;;22.70;62.20;;;;;;4995053;28;20192;-75
2022/06/22 03:39:59;;;;;;;6.68;2.50;;;22.80;62.50;;;;;;5000611;28;20191;-74
2022/06/22 03:42:31;;;;;;;7.50;2.42;;;22.80;62.70;;;;;;4991224;28;20189;-74
2022/06/22 03:45:03;;;;;;;5.32;2.20;;;22.80;62.90;;;;;;5004162;28;20196;-74
2022/06/22 03:47:38;;;;;;;5.60;2.10;;;22.80;62.90;;;;;;4994095;28;20189;-74
2022/06/22 03:50:14;;;;;;;5.03;1.98;;;22.80;62.60;;;;;;5000138;28;20215;-74
2022/06/22 03:52:47;;;;;;;5.30;2.10;;;22.80;62.40;;;;;;4994845;28;20623;-74
2022/06/22 03:55:18;;;;;;;7.85;2.20;;;22.90;62.30;;;;;;4985701;28;20212;-75
2022/06/22 03:57:50;;;;;;;4.18;2.20;;;22.90;62.00;;;;;;4994188;28;20204;-75
2022/06/22 04:00:20;;;;;;;5.97;1.95;;;22.90;61.80;;;;;;4993716;28;20199;-75
2022/06/22 04:02:50;;;;;;;8.27;2.45;;;22.90;61.70;;;;;;4993500;28;20268;-75
2022/06/22 04:05:22;;;;;;;10.57;2.28;;;23.00;61.40;;;;;;4988930;28;20193;-76
2022/06/22 04:07:51;;;;;;;3.03;1.90;;;23.00;61.30;;;;;;5001434;28;20549;-75
2022/06/22 04:10:33;;;;;;;3.33;2.05;;;23.00;61.30;;;;;;4993242;28;20719;-75
2022/06/22 04:13:06;;;;;;;8.07;2.20;;;23.10;61.10;;;;;;5000901;28;20185;-75
2022/06/22 04:15:40;;;;;;;5.88;1.70;;;23.10;60.70;;;;;;4998412;28;20188;-75
2022/06/22 04:18:16;;;;;;;3.70;1.90;;;23.10;60.60;;;;;;5000476;28;20205;-75
2022/06/22 04:20:52;;;;;;;5.63;1.67;;;23.20;60.70;;;;;;5000806;28;20192;-75
2022/06/22 04:23:26;;;;;;;3.05;1.92;;;23.20;60.40;;;;;;4998757;28;20230;-75
2022/06/22 04:25:59;;;;;;;4.97;2.47;;;23.20;60.40;;;;;;5004633;28;20184;-75
2022/06/22 04:28:31;;;;;;;4.95;1.52;;;23.20;60.30;;;;;;5004505;28;20203;-75
2022/06/22 04:31:02;;;;;;;5.63;1.60;;;23.30;60.20;;;;;;5001808;28;20236;-75
2022/06/22 04:33:41;;;;;;;5.78;1.88;;;23.30;59.90;;;;;;5001934;28;20189;-75
2022/06/22 04:36:14;;;;;;;3.00;1.80;;;23.30;59.70;;;;;;5001966;28;20651;-75
2022/06/22 04:38:46;;;;;;;6.38;2.00;;;23.30;59.50;;;;;;4999128;28;20730;-75
2022/06/22 04:41:26;;;;;;;9.30;2.08;;;23.40;59.40;;;;;;5010356;28;20753;-75
2022/06/22 04:43:56;;;;;;;3.20;1.50;;;23.40;59.20;;;;;;5002194;28;20184;-75
2022/06/22 04:46:28;;;;;;;7.22;1.88;;;23.50;59.00;;;;;;4998455;28;20192;-75
2022/06/22 04:49:01;;;;;;;3.00;1.60;;;23.50;58.60;;;;;;5001751;28;20553;-75
2022/06/22 04:51:33;;;;;;;3.65;1.50;;;23.50;58.60;;;;;;5000634;28;20216;-75
2022/06/22 04:54:13;;;;;;;3.85;1.67;;;23.60;58.60;;;;;;5000624;28;20185;-76
2022/06/22 04:56:44;;;;;;;4.45;1.60;;;23.60;58.50;;;;;;5000518;28;20197;-74
2022/06/22 04:59:14;;;;;;;4.22;1.60;;;23.60;58.40;;;;;;5003191;28;20580;-75
2022/06/22 05:01:46;;;;;;;4.00;1.52;;;23.60;58.30;;;;;;5005165;28;20211;-75
2022/06/22 05:04:19;;;;;;;2.90;1.30;;;23.70;58.10;;;;;;5005966;28;20196;-76
2022/06/22 05:06:59;;;;;;;5.03;1.70;;;23.70;58.00;;;;;;5006287;28;20199;-76
2022/06/22 05:09:34;;;;;;;6.43;1.60;;;23.80;57.90;;;;;;5005353;28;20197;-75
2022/06/22 05:12:03;;;;;;;3.78;1.20;;;23.80;57.70;;;;;;5003311;28;20722;-75
2022/06/22 05:14:33;;;;;;;3.88;1.67;;;23.90;57.30;;;;;;4999318;28;20289;-74
2022/06/22 05:17:05;;;;;;;1.90;1.48;;;23.90;57.20;;;;;;5000980;28;20579;-75
2022/06/22 05:19:48;;;;;;;5.10;1.60;;;23.90;56.90;;;;;;4996821;28;20192;-75
2022/06/22 05:22:18;;;;;;;2.38;1.60;;;24.00;56.80;;;;;;4999826;28;20193;-75
2022/06/22 05:24:51;;;;;;;4.13;1.30;;;24.00;56.60;;;;;;5009796;28;20202;-74
2022/06/22 05:27:25;;;;;;;3.55;1.48;;;24.00;56.50;;;;;;5003796;28;20439;-75
2022/06/22 05:29:58;;;;;;;3.80;1.50;;;24.00;56.40;;;;;;5002817;28;20196;-75
2022/06/22 05:32:31;;;;;;;3.03;1.48;;;24.00;56.10;;;;;;4999862;28;20226;-74
2022/06/22 05:35:08;;;;;;;2.10;1.30;;;24.00;55.90;;;;;;5001735;28;20203;-74
2022/06/22 05:37:41;;;;;;;3.58;1.60;;;24.00;55.50;;;;;;4998489;28;20440;-74
2022/06/22 05:40:11;;;;;;;4.00;1.20;;;24.10;55.10;;;;;;5007052;28;20199;-75
2022/06/22 05:42:40;;;;;;;1.60;1.02;;;24.10;55.00;;;;;;5008801;28;20199;-75
2022/06/22 05:45:15;;;;;;;3.95;1.33;;;24.10;55.10;;;;;;5007626;28;20682;-75
2022/06/22 05:47:45;;;;;;;5.47;1.10;;;24.20;55.20;;;;;;5003121;28;20203;-76
2022/06/22 05:50:22;;;;;;;11.90;1.95;;;24.30;55.20;;;;;;5006021;28;20189;-75
2022/06/22 05:52:58;;;;;;;3.40;1.58;;;24.30;54.90;;;;;;4999869;28;20219;-75
2022/06/22 05:55:32;;;;;;;3.55;1.30;;;24.40;54.70;;;;;;5002807;28;20195;-74
2022/06/22 05:58:09;;;;;;;2.25;1.40;;;24.40;54.70;;;;;;5006421;28;20198;-75
2022/06/22 06:00:44;;;;;;;5.85;1.40;;;24.50;54.90;;;;;;4990815;28;20185;-75
2022/06/22 06:03:25;;;;;;;1.80;1.20;;;24.50;54.70;;;;;;4997476;28;20287;-75
2022/06/22 06:06:01;;;;;;;6.88;1.40;;;24.60;54.50;;;;;;5009175;28;20880;-75
2022/06/22 06:08:36;;;;;;;2.50;1.15;;;24.60;54.30;;;;;;5001753;28;20203;-75
2022/06/22 06:11:07;;;;;;;2.25;1.08;;;24.70;54.20;;;;;;5002229;28;20192;-75
2022/06/22 06:13:39;;;;;;;4.75;1.20;;;24.80;54.20;;;;;;4998546;28;20211;-74
2022/06/22 06:16:10;;;;;;;3.08;1.00;;;24.80;53.90;;;;;;5013551;28;20267;-75
2022/06/22 06:18:42;;;;;;;5.22;1.60;;;24.80;54.10;;;;;;5009651;28;20192;-74
2022/06/22 06:21:16;;;;;;;2.67;1.30;;;25.00;53.90;;;;;;5017306;28;20203;-75
2022/06/22 06:23:50;;;;;;;2.35;1.23;;;25.00;53.50;;;;;;5016479;28;20184;-75
2022/06/22 06:29:32;;;;;;;3.17;1.40;;;25.10;53.30;;;;;;5001355;28;20192;-76
2022/06/22 06:32:20;;;;;;;7.90;1.70;;;25.10;52.90;;;;;;5015983;28;20238;-74
2022/06/22 06:34:54;;;;;;;8.27;1.90;;;25.10;52.60;;;;;;5000155;28;20191;-74
2022/06/22 06:37:33;;;;;;;2.63;1.00;;;25.20;52.80;;;;;;5005063;28;20191;-75
2022/06/22 06:40:02;;;;;;;2.53;1.40;;;25.20;52.70;;;;;;5003520;28;20193;-75
2022/06/22 06:42:39;;;;;;;6.85;1.42;;;25.30;52.60;;;;;;5004010;28;20200;-73
2022/06/22 06:45:15;;;;;;;8.25;1.42;;;25.30;51.70;;;;;;5009019;28;20200;-75
2022/06/22 06:47:48;;;;;;;3.95;1.08;;;25.30;51.70;;;;;;5001326;28;20685;-75
2022/06/22 06:50:21;;;;;;;9.15;1.25;;;25.30;51.50;;;;;;4998284;28;20192;-76
2022/06/22 06:52:57;;;;;;;2.63;1.23;;;25.40;51.80;;;;;;4992272;28;20205;-75
2022/06/22 06:55:33;;;;;;;1.70;1.05;;;25.40;51.50;;;;;;4999650;28;20192;-74
2022/06/22 06:58:12;;;;;;;3.05;1.25;;;25.50;51.80;;;;;;5005625;28;20199;-74
2022/06/22 07:00:42;;;;;;;1.67;1.30;;;25.50;51.40;;;;;;5005203;28;20204;-74
2022/06/22 07:03:18;;;;;;;3.05;1.35;;;25.60;51.60;;;;;;5005603;28;20220;-74
2022/06/22 07:05:47;;;;;;;6.00;1.70;;;25.60;51.50;;;;;;5015590;28;20192;-74
2022/06/22 07:08:20;;;;;;;3.45;1.40;;;25.70;51.10;;;;;;5008203;28;20192;-74
2022/06/22 07:11:14;;;;;;;2.65;1.35;;;25.70;51.10;;;;;;5007832;28;20203;-74
2022/06/22 07:13:48;;;;;;;3.47;1.48;;;25.70;51.30;;;;;;5006640;28;20244;-74
2022/06/22 07:16:21;;;;;;;2.42;1.40;;;25.70;51.30;;;;;;4998866;28;20192;-74
2022/06/22 07:18:55;;;;;;;4.95;1.50;;;25.70;51.40;;;;;;5005786;28;20287;-74
2022/06/22 07:21:32;;;;;;;2.95;1.30;;;25.80;51.50;;;;;;5002753;28;20212;-74
2022/06/22 07:24:07;;;;;;;2.13;1.48;;;25.80;51.60;;;;;;5011200;28;20192;-74
2022/06/22 07:26:46;;;;;;;4.28;1.40;;;25.90;51.70;;;;;;5009527;28;20188;-74
2022/06/22 07:29:25;;;;;;;3.10;1.20;;;25.90;51.40;;;;;;5005359;28;20200;-74
2022/06/22 07:31:59;;;;;;;3.83;1.38;;;26.00;51.60;;;;;;4999149;28;20220;-74
2022/06/22 07:34:35;;;;;;;5.35;1.30;;;26.00;51.50;;;;;;5006208;28;20265;-75
2022/06/22 07:37:11;;;;;;;6.82;1.60;;;26.10;51.80;;;;;;5007194;28;20203;-74
2022/06/22 07:39:46;;;;;;;3.88;1.45;;;26.10;51.30;;;;;;5014311;28;20672;-74
2022/06/22 07:42:15;;;;;;;8.75;1.70;;;26.10;51.50;;;;;;5005377;28;20578;-73
2022/06/22 07:44:44;;;;;;;4.72;1.55;;;26.10;51.30;;;;;;5009018;28;20211;-75
2022/06/22 07:47:18;;;;;;;2.85;1.67;;;26.20;51.60;;;;;;5005954;28;20203;-74
2022/06/22 07:49:52;;;;;;;3.42;1.45;;;26.20;51.40;;;;;;5003838;28;20195;-74
2022/06/22 07:52:25;;;;;;;2.53;1.45;;;26.20;51.50;;;;;;5004779;28;20223;-74
2022/06/22 07:55:01;;;;;;;7.22;1.88;;;26.20;51.80;;;;;;5004033;28;20195;-75
2022/06/22 07:57:38;;;;;;;2.92;1.50;;;26.20;51.30;;;;;;5006504;28;20188;-75
2022/06/22 08:00:12;;;;;;;2.92;1.35;;;26.20;51.40;;;;;;5005560;28;20187;-74
2022/06/22 08:02:50;;;;;;;5.15;1.65;;;26.30;51.80;;;;;;5008246;28;20657;-75
2022/06/22 08:05:22;;;;;;;8.52;1.90;;;26.30;51.70;;;;;;5006680;28;20276;-75
2022/06/22 08:07:55;;;;;;;9.60;1.77;;;26.30;51.80;;;;;;5009646;28;20199;-75
2022/06/22 08:10:31;;;;;;;3.08;1.88;;;26.40;51.80;;;;;;5006179;28;20705;-74
2022/06/22 08:13:06;;;;;;;6.38;1.52;;;26.40;51.90;;;;;;5011560;28;20219;-74
2022/06/22 08:15:38;;;;;;;3.63;2.08;;;26.40;51.90;;;;;;5003636;28;20193;-73
2022/06/22 08:18:08;;;;;;;5.47;1.33;;;26.50;51.80;;;;;;4998107;28;20188;-75
2022/06/22 08:20:40;;;;;;;4.18;1.73;;;26.50;51.40;;;;;;5006557;28;20448;-75
2022/06/22 08:23:14;;;;;;;5.95;1.30;;;26.50;50.70;;;;;;5003445;28;20184;-75
2022/06/22 08:26:02;;;;;;;3.90;1.40;;;26.50;49.90;;;;;;4996966;28;20264;-74
2022/06/22 08:28:34;;;;;;;6.93;1.50;;;26.50;49.90;;;;;;4997843;28;20685;-74
2022/06/22 08:31:03;;;;;;;2.08;1.13;;;26.60;49.80;;;;;;5001543;28;20235;-77
2022/06/22 08:33:36;;;;;;;5.30;1.88;;;26.60;50.10;;;;;;5005897;28;20308;-75
2022/06/22 08:36:10;;;;;;;2.50;1.45;;;26.60;49.30;;;;;;5011869;28;20192;-75
2022/06/22 08:38:44;;;;;;;5.65;1.27;;;26.60;49.60;;;;;;5009613;28;20192;-73
2022/06/22 08:41:28;;;;;;;7.18;1.40;;;26.70;49.50;;;;;;5005653;28;20196;-74
2022/06/22 08:44:02;;;;;;;10.10;1.55;;;26.70;49.10;;;;;;5002340;28;20227;-77
2022/06/22 08:46:53;;;;;;;2.63;1.33;;;26.70;48.00;;;;;;5007034;28;20246;-74
2022/06/22 08:50:03;;;;;;;3.15;0.90;;;26.70;47.40;;;;;;5001417;28;20827;-75
2022/06/22 08:52:47;;;;;;;6.00;1.13;;;26.80;47.10;;;;;;5003330;28;20280;-73
2022/06/22 08:55:53;;;;;;;5.90;1.20;;;26.80;47.10;;;;;;5003424;28;20646;-74
2022/06/22 08:58:43;;;;;;;3.53;1.20;;;26.90;46.80;;;;;;5000699;28;20231;-75
2022/06/22 09:01:23;;;;;;;2.42;1.20;;;26.90;47.00;;;;;;5002588;28;20184;-75
2022/06/22 09:04:35;;;;;;;6.03;1.40;;;27.00;47.10;;;;;;5003936;28;20200;-75
2022/06/22 09:07:29;;;;;;;3.95;1.33;;;27.10;46.90;;;;;;4984539;28;20204;-74
2022/06/22 09:10:28;;;;;;;2.95;1.20;;;27.10;46.80;;;;;;5005405;28;20719;-74
2022/06/22 09:13:27;;;;;;;2.95;1.00;;;27.20;47.10;;;;;;5003445;28;20220;-74
2022/06/22 09:16:05;;;;;;;4.13;1.20;;;27.20;45.70;;;;;;5003540;28;20199;-75
2022/06/22 09:18:50;;;;;;;2.65;1.05;;;27.20;45.90;;;;;;5000963;28;20242;-75
2022/06/22 09:21:30;;;;;;;5.75;1.20;;;27.20;45.70;;;;;;4994452;28;20192;-75
2022/06/22 09:24:07;;;;;;;3.05;1.08;;;27.20;45.60;;;;;;4990609;28;20196;-74
2022/06/22 09:26:53;;;;;;;2.13;0.98;;;27.30;45.60;;;;;;5002884;28;20188;-77
2022/06/22 09:29:38;;;;;;;2.38;0.90;;;27.30;45.70;;;;;;5010592;28;20193;-76
2022/06/22 09:32:44;;;;;;;1.80;1.15;;;27.40;45.90;;;;;;5004275;28;20779;-77
2022/06/22 09:35:43;;;;;;;1.42;1.10;;;27.40;46.10;;;;;;4996618;28;20274;-75
2022/06/22 09:38:35;;;;;;;5.53;1.08;;;27.50;46.10;;;;;;4998868;28;20807;-76
2022/06/22 09:41:12;;;;;;;6.53;1.33;;;27.60;46.10;;;;;;5002158;28;20204;-75
2022/06/22 09:44:06;;;;;;;5.10;1.20;;;27.60;46.40;;;;;;5001620;28;20196;-78
2022/06/22 09:47:03;;;;;;;3.53;1.00;;;27.70;46.40;;;;;;4998962;28;20219;-75
2022/06/22 09:50:03;;;;;;;2.92;1.00;;;27.70;45.70;;;;;;5008019;28;20185;-78
2022/06/22 09:52:59;;;;;;;6.25;1.30;;;27.80;46.00;;;;;;4993280;28;20649;-79
2022/06/22 09:58:56;;;;;;;2.90;1.17;;;27.90;46.60;;;;;;4997454;28;20195;-76
2022/06/22 10:01:33;;;;;;;4.28;1.20;;;28.00;46.80;;;;;;5004167;28;20207;-75
2022/06/22 10:04:21;;;;;;;2.25;1.13;;;28.00;47.00;;;;;;5000382;28;20198;-75
2022/06/22 10:07:02;;;;;;;1.88;1.23;;;28.10;46.30;;;;;;5002672;28;20200;-76
2022/06/22 10:09:52;;;;;;;5.80;1.50;;;28.10;46.20;;;;;;5002702;28;20195;-77
2022/06/22 10:12:53;;;;;;;4.97;1.10;;;28.20;45.80;;;;;;4999277;28;20197;-76
2022/06/22 10:15:47;;;;;;;2.05;1.15;;;28.20;45.50;;;;;;4999799;28;20215;-76
2022/06/22 10:18:45;;;;;;;5.28;1.20;;;28.30;45.20;;;;;;4998031;28;20192;-77
2022/06/22 10:21:22;;;;;;;2.20;1.02;;;28.40;44.80;;;;;;5000782;28;20193;-75
2022/06/22 10:24:16;;;;;;;2.30;1.08;;;28.40;45.00;;;;;;5006024;28;20196;-76
2022/06/22 10:26:56;;;;;;;1.83;1.00;;;28.50;45.30;;;;;;5006452;28;20224;-75
2022/06/22 10:29:56;;;;;;;2.25;1.05;;;28.50;45.10;;;;;;5007648;28;20192;-77
2022/06/22 10:32:49;;;;;;;1.90;1.00;;;28.60;44.60;;;;;;4996179;28;20232;-76
2022/06/22 10:35:37;;;;;;;2.85;1.00;;;28.60;44.70;;;;;;5000057;28;20350;-75
2022/06/22 10:38:26;;;;;;;1.80;0.98;;;28.70;44.50;;;;;;5001963;28;20197;-78
2022/06/22 10:47:21;;;;;;;3.15;1.30;;;28.80;43.50;;;;;;5008399;28;20893;-77
2022/06/22 10:50:10;;;;;;;5.75;1.35;;;29.00;43.90;;;;;;5002169;28;20225;-79
2022/06/22 10:53:29;;;;;;;1.83;0.90;;;29.00;42.90;;;;;;4998594;28;20204;-83
2022/06/22 10:56:06;;;;;;;2.97;1.08;;;29.10;42.10;;;;;;4994838;28;20200;-77
2022/06/22 10:59:07;;;;;;;3.33;0.95;;;29.10;42.10;;;;;;5014242;28;20192;-78
2022/06/22 11:01:57;;;;;;;2.47;0.80;;;29.20;40.90;;;;;;4998335;28;20195;-76
2022/06/22 11:04:51;;;;;;;9.70;1.35;;;29.20;41.10;;;;;;5003578;28;20188;-77
2022/06/22 11:07:51;;;;;;;4.05;1.08;;;29.30;40.70;;;;;;4986742;28;20211;-79
2022/06/22 11:10:40;;;;;;;6.00;1.00;;;29.40;41.30;;;;;;5000818;28;20349;-79
2022/06/22 11:13:29;;;;;;;5.55;1.33;;;29.50;41.60;;;;;;4996080;28;20200;-77
2022/06/22 11:16:27;;;;;;;2.25;0.90;;;29.50;42.10;;;;;;5011708;28;20188;-80
2022/06/22 11:19:28;;;;;;;2.13;0.90;;;29.50;41.30;;;;;;5002375;28;20805;-77
2022/06/22 11:22:16;;;;;;;1.77;0.90;;;29.60;40.40;;;;;;5003931;28;20207;-78
2022/06/22 11:31:47;;;;;;;2.70;1.10;;;29.70;40.70;;;;;;4957359;28;20228;-82
2022/06/22 11:34:46;;;;;;;2.08;1.10;;;29.70;40.70;;;;;;4997343;28;20228;-77
2022/06/22 11:37:24;;;;;;;2.65;1.08;;;29.80;41.00;;;;;;4989132;28;20208;-77
2022/06/22 11:40:50;;;;;;;2.58;1.00;;;29.80;41.10;;;;;;4997091;28;20727;-78
2022/06/22 11:43:34;;;;;;;3.08;1.00;;;29.80;41.00;;;;;;4996021;28;20192;-78
2022/06/22 11:46:09;;;;;;;1.00;0.88;;;29.90;41.30;;;;;;5006831;28;20197;-79
2022/06/22 11:49:08;;;;;;;3.28;0.70;;;29.90;40.20;;;;;;5008894;28;20698;-78
2022/06/22 11:52:12;;;;;;;1.40;0.80;;;29.90;38.10;;;;;;5006394;28;20212;-82
2022/06/22 11:54:51;;;;;;;2.72;0.90;;;30.00;38.10;;;;;;5008552;28;20212;-80
2022/06/22 11:57:55;;;;;;;3.17;1.17;;;30.10;38.30;;;;;;5010514;28;20192;-80
2022/06/22 12:00:33;;;;;;;1.63;0.75;;;30.20;39.00;;;;;;5004596;28;20192;-78
2022/06/22 12:03:40;;;;;;;3.47;1.10;;;30.20;39.20;;;;;;5010725;28;20190;-77
2022/06/22 12:06:29;;;;;;;4.05;0.90;;;30.20;39.30;;;;;;5015887;28;20200;-78
2022/06/22 12:09:12;;;;;;;2.70;0.88;;;30.30;39.50;;;;;;5017561;28;20235;-78
2022/06/22 12:11:51;;;;;;;1.88;1.00;;;30.40;40.10;;;;;;5007773;28;20192;-77
2022/06/22 12:17:28;;;;;;;1.60;0.75;;;30.50;39.30;;;;;;5004793;28;20187;-79
2022/06/22 12:20:09;;;;;;;4.57;0.90;;;30.60;39.00;;;;;;4996292;28;20196;-77
2022/06/22 12:22:52;;;;;;;2.45;0.95;;;30.60;37.60;;;;;;5003786;28;20195;-80
2022/06/22 12:25:32;;;;;;;4.32;1.00;;;30.70;37.60;;;;;;5006048;28;20733;-78
2022/06/22 12:28:14;;;;;;;3.00;1.08;;;30.90;37.90;;;;;;5006659;28;20207;-79
2022/06/22 12:30:56;;;;;;;2.22;0.88;;;31.00;38.90;;;;;;5005723;28;20188;-79
2022/06/22 12:33:30;;;;;;;1.80;0.95;;;31.20;39.60;;;;;;5005220;28;20192;-77
2022/06/22 12:36:05;;;;;;;1.88;1.15;;;31.30;39.40;;;;;;5007742;28;20219;-78
2022/06/22 12:38:41;;;;;;;1.02;0.80;;;31.50;39.20;;;;;;4997884;28;20201;-78
2022/06/22 12:41:42;;;;;;;7.07;0.90;;;31.60;39.90;;;;;;5001071;28;20200;-79
2022/06/22 12:44:42;;;;;;;1.70;1.10;;;31.90;39.40;;;;;;5003011;28;20192;-79
2022/06/22 12:48:02;;;;;;;4.03;0.98;;;32.10;39.40;;;;;;5004009;28;20205;-79
2022/06/22 12:51:01;;;;;;;1.40;0.95;;;32.40;39.00;;;;;;5008972;28;20195;-78
2022/06/22 12:53:39;;;;;;;1.95;0.70;;;32.60;38.40;;;;;;4974153;28;20203;-78
2022/06/22 12:56:12;;;;;;;2.30;1.00;;;32.90;38.20;;;;;;5020160;28;20216;-79
2022/06/22 12:58:46;;;;;;;3.28;0.75;;;33.00;38.00;;;;;;5014977;28;20199;-78
2022/06/22 13:01:15;;;;;;;1.92;1.00;;;33.20;37.90;;;;;;5018051;28;20187;-78
2022/06/22 13:03:48;;;;;;;2.30;0.90;;;33.40;37.60;;;;;;5005075;28;20242;-79
2022/06/22 13:06:17;;;;;;;4.32;1.10;;;33.50;36.80;;;;;;5013323;28;20197;-78
2022/06/22 13:08:48;;;;;;;1.40;0.90;;;33.60;36.40;;;;;;5015658;28;20192;-81
2022/06/22 13:11:19;;;;;;;4.80;0.93;;;33.80;36.50;;;;;;5019210;28;20239;-78
2022/06/22 13:14:03;;;;;;;1.17;0.98;;;33.90;36.30;;;;;;4999997;28;20288;-79
2022/06/22 13:16:37;;;;;;;0.90;0.70;;;33.80;36.20;;;;;;5005680;28;20303;-80
2022/06/22 13:19:15;;;;;;;1.55;0.90;;;33.80;36.00;;;;;;5012174;28;20198;-78
2022/06/22 13:21:54;;;;;;;1.27;0.80;;;34.00;36.20;;;;;;5006375;28;20620;-79
2022/06/22 13:24:32;;;;;;;4.10;0.90;;;34.00;36.20;;;;;;5002180;28;20536;-77
2022/06/22 13:27:14;;;;;;;2.28;0.98;;;34.00;36.00;;;;;;5011570;28;20204;-78
2022/06/22 13:29:49;;;;;;;1.33;0.77;;;34.10;35.40;;;;;;5013242;28;20188;-77
2022/06/22 13:32:20;;;;;;;2.13;0.85;;;34.00;35.60;;;;;;5006761;28;20598;-79
2022/06/22 13:34:53;;;;;;;1.27;0.80;;;33.90;35.50;;;;;;5002684;28;20192;-79
2022/06/22 13:37:30;;;;;;;2.25;0.70;;;33.80;35.40;;;;;;5000952;28;20196;-79
2022/06/22 13:40:10;;;;;;;2.78;1.17;;;33.70;35.00;;;;;;4995076;28;20193;-79
2022/06/22 13:43:08;;;;;;;3.97;0.90;;;33.60;34.40;;;;;;5008880;28;20188;-80
2022/06/22 13:45:48;;;;;;;1.70;1.00;;;33.40;34.90;;;;;;4993974;28;20193;-78
2022/06/22 13:48:23;;;;;;;1.63;0.98;;;33.30;35.00;;;;;;5002342;28;20207;-79
2022/06/22 13:51:13;;;;;;;6.95;1.80;;;33.20;35.50;;;;;;4999924;28;20199;-79
2022/06/22 13:54:26;;;;;;;1.90;1.00;;;33.10;35.70;;;;;;5007401;28;20184;-80
2022/06/22 13:57:06;;;;;;;3.35;1.05;;;33.00;35.90;;;;;;4995389;28;20893;-80
2022/06/22 13:59:42;;;;;;;3.10;1.77;;;32.90;36.20;;;;;;4994750;28;20203;-76
2022/06/22 14:02:36;;;;;;;2.38;1.00;;;32.80;36.50;;;;;;5000272;28;20188;-77
2022/06/22 14:05:12;;;;;;;4.35;0.93;;;32.70;36.70;;;;;;4995713;28;20669;-78
2022/06/22 14:07:46;;;;;;;2.85;0.98;;;32.70;37.10;;;;;;4996601;28;20252;-78
2022/06/22 14:10:24;;;;;;;6.90;1.33;;;32.60;37.10;;;;;;5001700;28;20195;-78
2022/06/22 14:13:25;;;;;;;7.45;1.15;;;32.60;37.40;;;;;;4997998;28;20197;-78
2022/06/22 14:16:01;;;;;;;1.95;0.80;;;32.70;37.40;;;;;;5005447;28;20664;-77
2022/06/22 14:18:36;;;;;;;4.88;1.30;;;32.80;37.70;;;;;;4993301;28;20199;-78